createdAt,value
2022-07-29T00:00:07.485Z,38.30
2022-07-29T00:02:34.874Z,38.30
2022-07-29T00:05:02.534Z,38.30
2022-07-29T00:07:29.435Z,38.20
2022-07-29T00:09:56.401Z,38.20
2022-07-29T00:12:26.181Z,38.20
2022-07-29T00:14:57.303Z,38.20
2022-07-29T00:17:25.634Z,38.20
2022-07-29T00:19:53.029Z,38.20
2022-07-29T00:22:21.226Z,38.20
2022-07-29T00:24:51.314Z,38.20
2022-07-29T00:27:19.138Z,38.20
2022-07-29T00:29:46.349Z,38.30
2022-07-29T00:32:13.544Z,38.30
2022-07-29T00:34:59.682Z,38.20
2022-07-29T00:37:26.891Z,38.20
2022-07-29T00:39:54.007Z,38.20
2022-07-29T00:42:21.096Z,38.10
2022-07-29T00:44:48.131Z,38.10
2022-07-29T00:47:15.229Z,38.10
2022-07-29T00:49:43.246Z,38.10
2022-07-29T00:52:11.633Z,38.10
2022-07-29T00:54:44.554Z,38.10
2022-07-29T00:57:13.044Z,38.00
2022-07-29T00:59:40.560Z,38.00
2022-07-29T01:02:07.731Z,38.00
2022-07-29T01:04:35.219Z,38.00
2022-07-29T01:07:03.785Z,38.00
2022-07-29T01:09:35.016Z,38.00
2022-07-29T01:12:14.598Z,38.00
2022-07-29T01:14:42.674Z,38.00
2022-07-29T01:17:21.891Z,38.10
2022-07-29T01:20:07.429Z,38.00
2022-07-29T01:23:07.030Z,38.00
2022-07-29T01:25:55.972Z,38.00
2022-07-29T01:28:41.637Z,37.90
2022-07-29T01:31:22.807Z,37.90
2022-07-29T01:33:59.079Z,37.80
2022-07-29T01:36:44.220Z,37.70
2022-07-29T01:39:28.395Z,37.80
2022-07-29T01:42:22.314Z,37.80
2022-07-29T01:44:57.346Z,37.70
2022-07-29T01:47:32.541Z,37.80
2022-07-29T01:50:07.161Z,37.80
2022-07-29T01:52:43.614Z,37.70
2022-07-29T01:55:18.662Z,37.70
2022-07-29T01:57:48.789Z,37.60
2022-07-29T02:00:17.334Z,37.70
2022-07-29T02:02:47.081Z,37.60
2022-07-29T02:05:16.845Z,37.60
2022-07-29T02:07:45.644Z,37.50
2022-07-29T02:10:14.274Z,37.30
2022-07-29T02:12:43.596Z,37.30
2022-07-29T02:15:19.331Z,37.30
2022-07-29T02:18:03.268Z,37.30
2022-07-29T02:20:31.649Z,37.40
2022-07-29T02:23:00.967Z,37.40
2022-07-29T02:25:37.045Z,37.40
2022-07-29T02:28:07.427Z,37.40
2022-07-29T02:30:37.812Z,37.40
2022-07-29T02:33:05.773Z,37.40
2022-07-29T02:35:34.633Z,37.40
2022-07-29T02:38:22.948Z,37.40
2022-07-29T02:40:51.688Z,37.40
2022-07-29T02:43:19.703Z,37.40
2022-07-29T02:45:53.531Z,37.40
2022-07-29T02:48:28.694Z,37.30
2022-07-29T02:51:05.854Z,37.20
2022-07-29T02:53:35.500Z,37.00
2022-07-29T02:56:14.290Z,36.90
2022-07-29T02:58:50.602Z,37.10
2022-07-29T03:01:22.830Z,37.20
2022-07-29T03:03:52.922Z,37.10
2022-07-29T03:06:28.105Z,37.10
2022-07-29T03:09:07.847Z,37.00
2022-07-29T03:11:46.191Z,37.00
2022-07-29T03:14:21.748Z,37.00
2022-07-29T03:16:50.160Z,37.10
2022-07-29T03:19:18.448Z,37.10
2022-07-29T03:21:46.889Z,37.00
2022-07-29T03:24:26.891Z,37.00
2022-07-29T03:26:53.912Z,36.80
2022-07-29T03:29:20.968Z,36.60
2022-07-29T03:31:48.022Z,36.60
2022-07-29T03:34:15.891Z,36.70
2022-07-29T03:36:43.087Z,36.60
2022-07-29T03:39:11.743Z,36.60
2022-07-29T03:41:42.803Z,36.50
2022-07-29T03:44:11.107Z,36.50
2022-07-29T03:46:40.224Z,36.60
2022-07-29T03:49:09.618Z,36.80
2022-07-29T03:51:37.250Z,37.00
2022-07-29T03:54:09.906Z,36.80
2022-07-29T03:56:41.201Z,37.00
2022-07-29T03:59:09.488Z,37.10
2022-07-29T04:01:37.541Z,37.00
2022-07-29T04:04:05.841Z,37.20
2022-07-29T04:06:40.942Z,36.90
2022-07-29T04:09:09.762Z,37.10
2022-07-29T04:11:59.800Z,37.20
2022-07-29T04:14:26.831Z,37.30
2022-07-29T04:16:54.197Z,37.30
2022-07-29T04:19:21.298Z,37.10
2022-07-29T04:21:48.292Z,37.00
2022-07-29T04:24:16.191Z,37.10
2022-07-29T04:26:43.373Z,37.30
2022-07-29T04:29:10.475Z,37.30
2022-07-29T04:31:37.549Z,37.70
2022-07-29T04:34:04.939Z,37.60
2022-07-29T04:36:31.915Z,37.70
2022-07-29T04:38:58.991Z,37.90
2022-07-29T04:41:32.566Z,38.00
2022-07-29T04:44:02.173Z,38.10
2022-07-29T04:46:29.342Z,38.50
2022-07-29T04:48:56.523Z,38.80
2022-07-29T04:51:23.750Z,39.00
2022-07-29T04:53:50.765Z,38.90
2022-07-29T04:56:17.724Z,38.90
2022-07-29T04:58:44.727Z,39.00
2022-07-29T05:01:11.804Z,38.80
2022-07-29T05:03:38.826Z,39.00
2022-07-29T05:06:05.878Z,39.10
2022-07-29T05:08:32.848Z,39.10
2022-07-29T05:11:11.471Z,39.50
2022-07-29T05:13:45.677Z,39.60
2022-07-29T05:16:15.033Z,39.70
2022-07-29T05:18:43.319Z,39.40
2022-07-29T05:21:10.432Z,39.50
2022-07-29T05:23:37.395Z,38.90
2022-07-29T05:26:04.400Z,38.80
2022-07-29T05:28:36.205Z,38.50
2022-07-29T05:31:03.421Z,38.70
2022-07-29T05:33:35.606Z,39.20
2022-07-29T05:36:07.810Z,39.50
2022-07-29T05:38:36.700Z,39.30
2022-07-29T05:41:05.133Z,39.40
2022-07-29T05:43:32.326Z,39.50
2022-07-29T05:45:59.858Z,39.10
2022-07-29T05:48:27.037Z,39.10
2022-07-29T05:50:54.129Z,39.40
2022-07-29T05:53:21.287Z,39.00
2022-07-29T05:55:49.259Z,38.70
2022-07-29T05:58:16.441Z,38.50
2022-07-29T06:00:43.429Z,38.60
2022-07-29T06:03:10.471Z,38.70
2022-07-29T06:05:37.560Z,38.80
2022-07-29T06:08:06.865Z,38.70
2022-07-29T06:10:35.255Z,39.30
2022-07-29T06:13:02.285Z,39.40
2022-07-29T06:15:29.295Z,39.40
2022-07-29T06:17:59.870Z,39.60
2022-07-29T06:20:32.285Z,39.30
2022-07-29T06:23:00.306Z,38.70
2022-07-29T06:25:30.358Z,38.90
2022-07-29T06:27:58.773Z,39.00
2022-07-29T06:30:25.846Z,39.00
2022-07-29T06:32:52.887Z,39.40
2022-07-29T06:35:38.029Z,40.10
2022-07-29T06:38:12.026Z,40.20
2022-07-29T06:41:11.263Z,40.90
2022-07-29T06:43:50.639Z,41.50
2022-07-29T06:46:21.068Z,41.70
2022-07-29T06:48:49.134Z,41.10
2022-07-29T06:51:17.275Z,41.30
2022-07-29T06:54:00.331Z,40.70
2022-07-29T06:56:38.822Z,41.10
2022-07-29T06:59:09.425Z,40.90
2022-07-29T07:01:41.587Z,40.30
2022-07-29T07:04:12.481Z,40.30
2022-07-29T07:06:39.360Z,41.30
2022-07-29T07:09:06.644Z,41.80
2022-07-29T07:11:34.138Z,42.50
2022-07-29T07:14:03.777Z,42.40
2022-07-29T07:16:32.078Z,41.90
2022-07-29T07:18:59.104Z,42.10
2022-07-29T07:21:26.100Z,42.90
2022-07-29T07:23:57.086Z,43.60
2022-07-29T07:26:24.112Z,43.70
2022-07-29T07:28:51.153Z,43.80
2022-07-29T07:31:18.507Z,44.00
2022-07-29T07:33:45.612Z,43.60
2022-07-29T07:36:12.663Z,43.50
2022-07-29T07:38:39.671Z,43.50
2022-07-29T07:41:06.655Z,44.10
2022-07-29T07:43:33.663Z,44.60
2022-07-29T07:46:00.644Z,44.80
2022-07-29T07:48:27.839Z,44.80
2022-07-29T07:50:54.925Z,45.00
2022-07-29T07:53:22.697Z,44.90
2022-07-29T07:58:37.839Z,45.20
2022-07-29T08:01:04.897Z,45.00
2022-07-29T08:03:31.941Z,44.50
2022-07-29T08:05:59.119Z,44.30
2022-07-29T08:08:26.118Z,44.40
2022-07-29T08:10:53.134Z,44.60
2022-07-29T08:13:22.305Z,44.60
2022-07-29T08:15:58.575Z,44.60
2022-07-29T08:18:27.155Z,45.20
2022-07-29T08:20:54.242Z,45.50
2022-07-29T08:23:21.608Z,45.60
2022-07-29T08:25:50.354Z,45.60
2022-07-29T08:28:18.282Z,46.00
2022-07-29T08:30:45.510Z,46.70
2022-07-29T08:33:12.608Z,47.40
2022-07-29T08:35:40.329Z,47.40
2022-07-29T08:38:07.360Z,47.60
2022-07-29T08:40:34.465Z,47.50
2022-07-29T08:43:09.399Z,47.80
2022-07-29T08:45:53.028Z,47.60
2022-07-29T08:48:23.733Z,47.60
2022-07-29T08:50:57.546Z,47.60
2022-07-29T08:53:28.302Z,47.80
2022-07-29T08:55:56.254Z,47.90
2022-07-29T08:58:25.875Z,48.00
2022-07-29T09:00:55.838Z,47.80
2022-07-29T09:03:31.760Z,47.50
2022-07-29T09:06:03.317Z,47.70
2022-07-29T09:08:35.026Z,47.70
2022-07-29T09:11:03.871Z,48.10
2022-07-29T09:13:31.331Z,48.50
2022-07-29T09:15:58.322Z,48.50
2022-07-29T09:18:43.642Z,49.00
2022-07-29T09:21:31.886Z,49.10
2022-07-29T09:24:13.509Z,49.10
2022-07-29T09:26:42.635Z,49.50
2022-07-29T09:29:12.174Z,49.80
2022-07-29T09:31:41.636Z,49.00
2022-07-29T09:34:09.871Z,49.20
2022-07-29T09:36:44.986Z,49.10
2022-07-29T09:39:12.310Z,48.90
2022-07-29T09:41:51.420Z,48.40
2022-07-29T09:44:18.642Z,48.20
2022-07-29T09:47:08.993Z,48.10
2022-07-29T09:49:36.802Z,48.00
2022-07-29T09:52:08.925Z,48.10
2022-07-29T09:54:39.985Z,47.60
2022-07-29T09:57:13.451Z,47.30
2022-07-29T09:59:50.346Z,46.90
2022-07-29T10:02:22.744Z,46.90
2022-07-29T10:04:51.009Z,46.90
2022-07-29T10:07:18.040Z,47.20
2022-07-29T10:10:11.925Z,47.30
2022-07-29T10:12:57.752Z,47.10
2022-07-29T10:15:29.454Z,46.70
2022-07-29T10:17:59.394Z,45.50
2022-07-29T10:20:28.502Z,45.30
2022-07-29T10:22:56.821Z,45.60
2022-07-29T10:25:24.793Z,45.50
2022-07-29T10:27:53.031Z,45.20
2022-07-29T10:30:22.499Z,44.80
2022-07-29T10:33:03.288Z,44.60
2022-07-29T10:35:39.184Z,44.90
2022-07-29T10:38:16.556Z,45.00
2022-07-29T10:41:29.037Z,45.10
2022-07-29T10:44:12.373Z,45.10
2022-07-29T10:46:45.013Z,44.90
2022-07-29T10:49:15.549Z,45.30
2022-07-29T10:51:51.890Z,46.20
2022-07-29T10:54:19.992Z,47.20
2022-07-29T10:56:47.804Z,47.80
2022-07-29T10:59:21.739Z,47.70
2022-07-29T11:01:53.641Z,47.00
2022-07-29T11:04:49.845Z,46.50
2022-07-29T11:07:17.613Z,46.70
2022-07-29T11:09:46.598Z,46.70
2022-07-29T11:12:38.888Z,46.50
2022-07-29T11:15:18.089Z,46.60
2022-07-29T11:18:01.962Z,46.60
2022-07-29T11:20:38.119Z,46.60
2022-07-29T11:23:33.353Z,47.10
2022-07-29T11:26:18.838Z,46.60
2022-07-29T11:28:55.741Z,46.50
2022-07-29T11:31:38.181Z,46.80
2022-07-29T11:34:28.093Z,46.00
2022-07-29T11:37:12.412Z,45.60
2022-07-29T11:40:06.168Z,45.10
2022-07-29T11:42:35.757Z,45.10
2022-07-29T11:45:41.293Z,45.70
2022-07-29T11:48:29.012Z,45.50
2022-07-29T11:50:50.433Z,45.70
2022-07-29T11:53:18.690Z,46.20
2022-07-29T11:55:50.938Z,46.50
2022-07-29T11:58:25.025Z,46.20
2022-07-29T12:00:53.189Z,46.50
2022-07-29T12:03:34.858Z,46.20
2022-07-29T12:06:12.381Z,46.40
2022-07-29T12:08:44.501Z,46.50
2022-07-29T12:11:23.545Z,46.20
2022-07-29T12:13:54.294Z,46.10
2022-07-29T12:16:25.777Z,46.00
2022-07-29T12:19:02.076Z,46.10
2022-07-29T12:21:53.907Z,46.40
2022-07-29T12:24:26.849Z,47.20
2022-07-29T12:26:59.325Z,47.60
2022-07-29T12:29:34.797Z,47.70
2022-07-29T12:32:04.886Z,48.50
2022-07-29T12:34:32.478Z,48.60
2022-07-29T12:36:59.639Z,48.80
2022-07-29T12:39:29.137Z,48.60
2022-07-29T12:42:04.638Z,48.80
2022-07-29T12:44:51.622Z,48.40
2022-07-29T12:47:20.294Z,47.90
2022-07-29T12:49:48.111Z,48.30
2022-07-29T12:52:34.202Z,48.00
2022-07-29T12:55:02.001Z,47.70
2022-07-29T12:57:29.601Z,47.10
2022-07-29T13:00:13.723Z,47.20
2022-07-29T13:02:42.650Z,47.20
2022-07-29T13:05:11.407Z,47.30
2022-07-29T13:07:55.958Z,46.90
2022-07-29T13:10:26.247Z,46.70
2022-07-29T13:13:14.311Z,46.70
2022-07-29T13:15:43.563Z,46.60
2022-07-29T13:18:33.196Z,46.50
2022-07-29T13:21:13.458Z,46.10
2022-07-29T13:23:40.562Z,46.40
2022-07-29T13:26:08.947Z,45.70
2022-07-29T13:28:36.418Z,45.40
2022-07-29T13:31:03.958Z,45.40
2022-07-29T13:33:31.388Z,44.70
2022-07-29T13:35:58.324Z,44.20
2022-07-29T13:38:25.690Z,44.20
2022-07-29T13:40:58.441Z,44.50
2022-07-29T13:43:25.437Z,44.50
2022-07-29T13:45:53.141Z,44.50
2022-07-29T13:48:20.237Z,44.60
2022-07-29T13:50:47.810Z,44.90
2022-07-29T13:53:18.040Z,45.20
2022-07-29T13:55:45.335Z,45.00
2022-07-29T13:58:12.394Z,44.70
2022-07-29T14:00:39.448Z,44.50
2022-07-29T14:03:07.541Z,44.90
2022-07-29T14:05:34.611Z,45.30
2022-07-29T14:08:01.607Z,45.60
2022-07-29T14:10:28.649Z,45.80
2022-07-29T14:12:55.644Z,46.00
2022-07-29T14:15:22.938Z,45.90
2022-07-29T14:17:50.063Z,46.00
2022-07-29T14:20:17.301Z,46.40
2022-07-29T14:22:45.073Z,46.70
2022-07-29T14:25:15.181Z,46.10
2022-07-29T14:27:44.799Z,45.70
2022-07-29T14:30:12.226Z,44.80
2022-07-29T14:32:40.498Z,44.80
2022-07-29T14:35:11.321Z,44.00
2022-07-29T14:37:40.123Z,44.10
2022-07-29T14:40:08.746Z,44.30
2022-07-29T14:42:35.859Z,44.80
2022-07-29T14:45:03.019Z,45.20
2022-07-29T14:47:30.818Z,45.70
2022-07-29T14:49:57.789Z,45.10
2022-07-29T14:52:24.760Z,44.70
2022-07-29T14:54:51.732Z,44.90
2022-07-29T14:57:18.725Z,45.10
2022-07-29T14:59:45.655Z,45.00
2022-07-29T15:02:12.650Z,44.90
2022-07-29T15:04:40.433Z,45.10
2022-07-29T15:07:07.519Z,45.30
2022-07-29T15:09:36.359Z,44.80
2022-07-29T15:12:08.321Z,44.60
2022-07-29T15:14:35.490Z,44.20
2022-07-29T15:17:02.519Z,44.10
2022-07-29T15:19:31.705Z,44.40
2022-07-29T15:21:59.773Z,44.90
2022-07-29T15:24:26.960Z,45.00
2022-07-29T15:26:54.904Z,45.00
2022-07-29T15:29:22.395Z,43.80
2022-07-29T15:31:49.441Z,43.70
2022-07-29T15:34:17.000Z,44.20
2022-07-29T15:36:52.818Z,44.30
2022-07-29T15:39:21.321Z,44.40
2022-07-29T15:41:48.533Z,44.10
2022-07-29T15:44:15.608Z,44.00
2022-07-29T15:47:02.151Z,44.00
2022-07-29T15:49:47.915Z,44.10
2022-07-29T15:52:24.925Z,43.40
2022-07-29T15:54:52.590Z,43.40
2022-07-29T15:57:19.606Z,43.50
2022-07-29T15:59:46.580Z,43.80
2022-07-29T16:02:13.599Z,44.00
2022-07-29T16:04:40.643Z,43.50
2022-07-29T16:07:08.009Z,43.50
2022-07-29T16:09:35.041Z,43.60
2022-07-29T16:12:02.164Z,44.10
2022-07-29T16:14:32.197Z,44.50
2022-07-29T16:17:01.855Z,43.30
2022-07-29T16:19:30.462Z,43.80
2022-07-29T16:21:59.887Z,43.70
2022-07-29T16:24:29.935Z,44.10
2022-07-29T16:26:57.940Z,44.50
2022-07-29T16:29:24.990Z,44.60
2022-07-29T16:31:53.237Z,44.50
2022-07-29T16:34:20.334Z,43.40
2022-07-29T16:36:47.933Z,43.10
2022-07-29T16:39:15.083Z,43.50
2022-07-29T16:41:42.870Z,43.30
2022-07-29T16:44:09.862Z,42.90
2022-07-29T16:46:37.816Z,43.50
2022-07-29T16:49:06.662Z,43.40
2022-07-29T16:51:33.723Z,43.50
2022-07-29T16:54:00.738Z,42.90
2022-07-29T16:56:27.738Z,42.70
2022-07-29T16:58:54.735Z,42.70
2022-07-29T17:01:21.797Z,42.70
2022-07-29T17:04:06.789Z,42.30
2022-07-29T17:06:39.367Z,41.90
2022-07-29T17:09:08.737Z,42.20
2022-07-29T17:11:53.482Z,42.20
2022-07-29T17:14:26.555Z,42.00
2022-07-29T17:17:00.696Z,41.90
2022-07-29T17:19:35.479Z,41.70
2022-07-29T17:22:11.706Z,41.70
2022-07-29T17:24:41.210Z,41.60
2022-07-29T17:27:09.030Z,41.60
2022-07-29T17:29:36.261Z,41.50
2022-07-29T17:32:03.770Z,41.60
2022-07-29T17:34:31.243Z,41.40
2022-07-29T17:36:58.437Z,41.90
2022-07-29T17:39:25.613Z,41.90
2022-07-29T17:41:52.570Z,42.30
2022-07-29T17:44:19.551Z,41.80
2022-07-29T17:46:46.623Z,41.90
2022-07-29T17:49:13.654Z,41.50
2022-07-29T17:51:40.629Z,41.30
2022-07-29T17:54:07.733Z,41.60
2022-07-29T17:56:34.865Z,41.70
2022-07-29T17:59:06.750Z,41.60
2022-07-29T18:01:34.447Z,41.60
2022-07-29T18:04:02.883Z,41.60
2022-07-29T18:06:30.217Z,41.40
2022-07-29T18:08:57.270Z,41.40
2022-07-29T18:11:24.247Z,41.00
2022-07-29T18:13:52.787Z,40.90
2022-07-29T18:16:20.023Z,40.60
2022-07-29T18:18:47.049Z,41.00
2022-07-29T18:21:14.089Z,41.10
2022-07-29T18:23:41.872Z,41.30
2022-07-29T18:26:09.971Z,41.40
2022-07-29T18:28:37.244Z,41.20
2022-07-29T18:31:07.053Z,41.10
2022-07-29T18:33:34.056Z,41.10
2022-07-29T18:36:10.768Z,41.30
2022-07-29T18:38:40.260Z,41.10
2022-07-29T18:41:07.413Z,41.10
2022-07-29T18:43:34.353Z,41.00
2022-07-29T18:46:01.330Z,41.20
2022-07-29T18:48:29.592Z,41.30
2022-07-29T18:50:56.626Z,41.20
2022-07-29T18:53:23.633Z,41.30
2022-07-29T18:55:50.595Z,41.30
2022-07-29T18:58:17.624Z,41.30
2022-07-29T19:00:44.616Z,41.40
2022-07-29T19:03:11.659Z,41.30
2022-07-29T19:05:38.742Z,41.40
2022-07-29T19:08:09.164Z,41.40
2022-07-29T19:10:36.227Z,41.30
2022-07-29T19:13:03.230Z,41.10
2022-07-29T19:15:30.296Z,41.00
2022-07-29T19:18:00.981Z,41.10
2022-07-29T19:20:28.879Z,41.10
2022-07-29T19:22:55.946Z,41.00
2022-07-29T19:25:23.370Z,41.00
2022-07-29T19:27:50.332Z,41.10
2022-07-29T19:30:17.425Z,41.10
2022-07-29T19:32:44.414Z,41.00
2022-07-29T19:35:31.675Z,41.10
2022-07-29T19:38:01.032Z,41.10
2022-07-29T19:40:29.153Z,41.00
2022-07-29T19:42:56.831Z,40.90
2022-07-29T19:45:25.778Z,40.80
2022-07-29T19:47:59.076Z,40.80
2022-07-29T19:50:28.418Z,40.80
2022-07-29T19:52:55.851Z,40.80
2022-07-29T19:55:23.574Z,40.70
2022-07-29T19:57:52.914Z,40.60
2022-07-29T20:00:21.061Z,40.50
2022-07-29T20:02:48.413Z,40.50
2022-07-29T20:05:15.906Z,40.60
2022-07-29T20:07:42.945Z,40.50
2022-07-29T20:10:10.819Z,40.60
2022-07-29T20:12:38.672Z,40.60
2022-07-29T20:15:10.667Z,40.60
2022-07-29T20:17:44.498Z,40.60
2022-07-29T20:20:11.696Z,40.50
2022-07-29T20:22:38.888Z,40.50
2022-07-29T20:25:07.317Z,40.50
2022-07-29T20:27:36.933Z,40.60
2022-07-29T20:30:04.475Z,40.60
2022-07-29T20:32:31.779Z,40.60
2022-07-29T20:34:58.754Z,40.30
2022-07-29T20:37:26.280Z,40.00
2022-07-29T20:39:53.281Z,39.80
2022-07-29T20:42:20.283Z,39.80
2022-07-29T20:44:49.347Z,39.90
2022-07-29T20:47:16.438Z,39.90
2022-07-29T20:49:43.393Z,39.80
2022-07-29T20:52:10.432Z,39.90
2022-07-29T20:54:37.394Z,40.00
2022-07-29T20:57:04.500Z,40.00
2022-07-29T20:59:31.904Z,40.00
2022-07-29T21:01:59.071Z,39.70
2022-07-29T21:04:30.886Z,39.40
2022-07-29T21:06:59.962Z,39.40
2022-07-29T21:09:27.119Z,39.20
2022-07-29T21:11:54.181Z,39.10
2022-07-29T21:14:36.403Z,38.80
2022-07-29T21:17:07.560Z,38.30
2022-07-29T21:19:35.247Z,38.30
2022-07-29T21:22:02.325Z,38.20
2022-07-29T21:24:29.377Z,38.00
2022-07-29T21:27:21.134Z,37.80
2022-07-29T21:29:49.545Z,37.70
2022-07-29T21:32:29.628Z,37.90
2022-07-29T21:34:57.677Z,37.90
2022-07-29T21:37:24.802Z,38.00
2022-07-29T21:39:51.956Z,38.00
2022-07-29T21:42:19.495Z,38.10
2022-07-29T21:44:46.562Z,37.90
2022-07-29T21:47:13.552Z,37.90
2022-07-29T21:49:40.999Z,37.90
2022-07-29T21:52:09.056Z,38.00
2022-07-29T21:54:36.171Z,38.20
2022-07-29T21:57:03.989Z,38.10
2022-07-29T21:59:31.982Z,38.30
2022-07-29T22:02:01.216Z,38.40
2022-07-29T22:04:29.262Z,38.50
2022-07-29T22:06:56.570Z,38.50
2022-07-29T22:09:23.982Z,37.90
2022-07-29T22:11:51.332Z,38.30
2022-07-29T22:14:18.763Z,38.30
2022-07-29T22:16:47.183Z,37.60
2022-07-29T22:19:15.256Z,37.90
2022-07-29T22:21:42.611Z,38.10
2022-07-29T22:24:10.729Z,38.10
2022-07-29T22:26:38.622Z,38.20
2022-07-29T22:29:06.695Z,37.80
2022-07-29T22:31:33.993Z,37.50
2022-07-29T22:34:00.971Z,37.10
2022-07-29T22:36:28.001Z,37.00
2022-07-29T22:38:55.021Z,37.10
2022-07-29T22:41:22.027Z,37.20
2022-07-29T22:43:49.116Z,37.10
2022-07-29T22:46:16.223Z,37.20
2022-07-29T22:48:43.360Z,37.10
2022-07-29T22:51:10.423Z,37.00
2022-07-29T22:53:37.377Z,36.80
2022-07-29T22:56:04.580Z,36.60
2022-07-29T22:58:31.765Z,36.00
2022-07-29T23:00:58.958Z,36.30
2022-07-29T23:03:26.046Z,36.40
2022-07-29T23:05:53.084Z,36.20
2022-07-29T23:08:20.556Z,36.20
2022-07-29T23:10:47.550Z,36.30
2022-07-29T23:13:14.873Z,36.20
2022-07-29T23:15:42.212Z,36.50
2022-07-29T23:18:09.610Z,36.60
2022-07-29T23:20:36.937Z,36.70
2022-07-29T23:23:04.205Z,36.60
2022-07-29T23:25:32.492Z,36.60
2022-07-29T23:27:59.504Z,37.00
2022-07-29T23:30:27.648Z,37.00
2022-07-29T23:32:55.119Z,36.40
2022-07-29T23:35:22.660Z,36.50
2022-07-29T23:37:49.729Z,36.90
2022-07-29T23:40:16.888Z,37.60
2022-07-29T23:42:44.347Z,37.90
2022-07-29T23:45:13.014Z,38.30
2022-07-29T23:47:40.794Z,38.60
2022-07-29T23:50:09.345Z,38.90
2022-07-29T23:52:36.301Z,39.00
2022-07-29T23:55:36.800Z,39.20
2022-07-29T23:57:51.832Z,39.30
